createdAt,value
2022-10-12T00:01:12.102Z,9.00
2022-10-12T00:03:39.236Z,7.55
2022-10-12T00:06:15.008Z,15.55
2022-10-12T00:08:43.034Z,13.95
2022-10-12T00:11:13.989Z,10.98
2022-10-12T00:13:41.593Z,12.02
2022-10-12T00:16:10.618Z,11.63
2022-10-12T00:18:37.881Z,11.88
2022-10-12T00:21:15.506Z,12.82
2022-10-12T00:23:43.620Z,17.63
2022-10-12T00:26:19.800Z,12.30
2022-10-12T00:28:46.835Z,21.40
2022-10-12T00:31:16.960Z,11.15
2022-10-12T00:33:43.979Z,15.77
2022-10-12T00:36:24.352Z,10.85
2022-10-12T00:38:52.989Z,15.82
2022-10-12T00:41:22.767Z,15.57
2022-10-12T00:43:55.334Z,12.25
2022-10-12T00:46:41.054Z,9.48
2022-10-12T00:49:24.651Z,14.75
2022-10-12T00:51:58.936Z,16.50
2022-10-12T00:54:37.744Z,10.63
2022-10-12T00:57:05.990Z,10.02
2022-10-12T00:59:36.452Z,12.57
2022-10-12T01:02:03.014Z,11.45
2022-10-12T01:04:31.614Z,12.82
2022-10-12T01:06:59.001Z,13.93
2022-10-12T01:09:27.503Z,15.50
2022-10-12T01:11:54.043Z,10.05
2022-10-12T01:14:20.537Z,14.82
2022-10-12T01:16:54.548Z,12.43
2022-10-12T01:19:42.481Z,12.30
2022-10-12T01:22:15.658Z,10.68
2022-10-12T01:24:54.321Z,13.82
2022-10-12T01:27:39.539Z,14.07
2022-10-12T01:30:07.740Z,11.05
2022-10-12T01:33:14.370Z,12.25
2022-10-12T01:35:53.122Z,11.43
2022-10-12T01:38:49.662Z,10.45
2022-10-12T01:41:27.423Z,10.02
2022-10-12T01:43:54.026Z,6.07
2022-10-12T01:46:20.477Z,12.30
2022-10-12T01:48:50.174Z,10.55
2022-10-12T01:51:24.792Z,10.90
2022-10-12T01:54:00.834Z,14.18
2022-10-12T01:56:42.405Z,13.93
2022-10-12T01:59:36.303Z,8.30
2022-10-12T02:02:24.422Z,14.00
2022-10-12T02:05:38.623Z,13.98
2022-10-12T02:08:25.670Z,11.18
2022-10-12T02:11:06.145Z,15.73
2022-10-12T02:13:36.880Z,7.97
2022-10-12T02:16:07.761Z,10.20
2022-10-12T02:18:36.873Z,11.32
2022-10-12T02:21:04.410Z,6.45
2022-10-12T02:23:30.961Z,8.05
2022-10-12T02:26:00.104Z,11.25
2022-10-12T02:28:30.460Z,11.48
2022-10-12T02:31:20.802Z,11.88
2022-10-12T02:34:33.624Z,14.93
2022-10-12T02:37:09.772Z,14.40
2022-10-12T02:39:47.934Z,10.15
2022-10-12T02:42:23.607Z,9.82
2022-10-12T02:44:53.873Z,9.57
2022-10-12T02:47:24.583Z,8.02
2022-10-12T02:49:53.344Z,13.73
2022-10-12T02:52:19.897Z,13.20
2022-10-12T02:54:46.557Z,10.27
2022-10-12T02:57:13.053Z,9.38
2022-10-12T02:59:39.556Z,11.95
2022-10-12T03:02:06.027Z,14.52
2022-10-12T03:04:32.622Z,11.35
2022-10-12T03:06:59.088Z,12.48
2022-10-12T03:09:25.565Z,11.30
2022-10-12T03:11:52.019Z,11.35
2022-10-12T03:14:18.504Z,9.27
2022-10-12T03:16:48.266Z,9.18
2022-10-12T03:19:15.328Z,14.00
2022-10-12T03:21:41.833Z,8.35
2022-10-12T03:24:08.386Z,7.03
2022-10-12T03:26:34.989Z,9.65
2022-10-12T03:29:01.452Z,12.65
2022-10-12T03:31:27.931Z,9.18
2022-10-12T03:33:54.426Z,12.60
2022-10-12T03:36:20.922Z,7.50
2022-10-12T03:38:47.453Z,10.82
2022-10-12T03:41:13.895Z,11.90
2022-10-12T03:43:40.426Z,13.30
2022-10-12T03:46:06.865Z,12.48
2022-10-12T03:48:33.404Z,8.80
2022-10-12T03:51:00.053Z,9.10
2022-10-12T03:53:26.573Z,10.05
2022-10-12T03:55:53.000Z,11.40
2022-10-12T03:58:19.473Z,10.18
2022-10-12T04:00:46.164Z,17.27
2022-10-12T04:03:12.666Z,10.00
2022-10-12T04:05:40.050Z,10.85
2022-10-12T04:08:06.533Z,13.52
2022-10-12T04:10:33.101Z,10.38
2022-10-12T04:12:59.639Z,10.95
2022-10-12T04:15:26.200Z,12.18
2022-10-12T04:17:53.308Z,10.65
2022-10-12T04:20:19.766Z,12.10
2022-10-12T04:22:46.285Z,11.93
2022-10-12T04:25:12.797Z,8.77
2022-10-12T04:27:39.810Z,9.95
2022-10-12T04:30:07.092Z,12.35
2022-10-12T04:32:33.586Z,11.23
2022-10-12T04:35:00.077Z,10.90
2022-10-12T04:37:28.050Z,9.77
2022-10-12T04:39:54.698Z,12.77
2022-10-12T04:42:21.253Z,11.82
2022-10-12T04:44:47.739Z,14.55
2022-10-12T04:47:14.191Z,10.15
2022-10-12T04:49:40.805Z,9.95
2022-10-12T04:52:07.274Z,7.13
2022-10-12T04:54:33.918Z,16.15
2022-10-12T04:57:00.427Z,12.40
2022-10-12T04:59:27.656Z,11.00
2022-10-12T05:01:54.533Z,12.52
2022-10-12T05:04:21.272Z,15.63
2022-10-12T05:06:47.778Z,10.65
2022-10-12T05:09:16.866Z,16.17
2022-10-12T05:11:43.831Z,13.00
2022-10-12T05:14:10.482Z,14.23
2022-10-12T05:16:36.950Z,12.38
2022-10-12T05:19:03.391Z,16.30
2022-10-12T05:21:29.935Z,12.35
2022-10-12T05:23:56.402Z,11.93
2022-10-12T05:26:22.886Z,12.23
2022-10-12T05:28:49.522Z,14.82
2022-10-12T05:31:16.091Z,16.30
2022-10-12T05:33:42.537Z,18.88
2022-10-12T05:36:09.336Z,22.20
2022-10-12T05:38:35.800Z,55.08
2022-10-12T05:41:02.280Z,99.88
2022-10-12T05:43:28.880Z,86.63
2022-10-12T05:45:55.536Z,59.10
2022-10-12T05:48:22.127Z,38.50
2022-10-12T05:50:48.710Z,42.42
2022-10-12T05:53:15.218Z,35.88
2022-10-12T05:55:52.031Z,25.02
2022-10-12T05:58:18.544Z,18.17
2022-10-12T06:00:44.996Z,16.80
2022-10-12T06:03:11.463Z,17.15
2022-10-12T06:05:37.947Z,15.93
2022-10-12T06:08:04.839Z,12.60
2022-10-12T06:10:32.166Z,21.52
2022-10-12T06:12:58.777Z,14.07
2022-10-12T06:15:25.268Z,13.48
2022-10-12T06:17:51.747Z,18.55
2022-10-12T06:20:18.211Z,17.35
2022-10-12T06:22:44.711Z,15.65
2022-10-12T06:25:11.194Z,16.25
2022-10-12T06:27:37.683Z,19.75
2022-10-12T06:30:04.928Z,19.27
2022-10-12T06:32:31.387Z,20.90
2022-10-12T06:34:57.940Z,17.58
2022-10-12T06:37:48.626Z,17.17
2022-10-12T06:40:11.463Z,17.08
2022-10-12T06:42:38.109Z,14.15
2022-10-12T06:45:05.123Z,18.90
2022-10-12T06:47:31.578Z,12.75
2022-10-12T06:49:58.097Z,13.70
2022-10-12T06:52:24.615Z,13.90
2022-10-12T06:54:51.078Z,14.85
2022-10-12T06:57:17.532Z,18.40
2022-10-12T06:59:44.003Z,15.80
2022-10-12T07:02:13.361Z,17.98
2022-10-12T07:04:39.831Z,17.48
2022-10-12T07:07:06.404Z,16.88
2022-10-12T07:09:33.054Z,15.15
2022-10-12T07:11:59.565Z,17.67
2022-10-12T07:14:26.062Z,13.10
2022-10-12T07:16:55.247Z,19.40
2022-10-12T07:19:22.135Z,13.90
2022-10-12T07:21:48.705Z,16.25
2022-10-12T07:24:15.306Z,14.85
2022-10-12T07:26:41.796Z,17.42
2022-10-12T07:29:08.370Z,18.45
2022-10-12T07:31:34.869Z,15.25
2022-10-12T07:34:01.343Z,13.00
2022-10-12T07:36:47.262Z,13.73
2022-10-12T07:39:17.205Z,15.18
2022-10-12T07:41:43.868Z,12.88
2022-10-12T07:44:10.825Z,16.83
2022-10-12T07:46:37.648Z,17.02
2022-10-12T07:49:04.579Z,12.90
2022-10-12T07:51:31.388Z,13.68
2022-10-12T07:54:00.149Z,12.65
2022-10-12T07:56:27.058Z,15.18
2022-10-12T07:58:55.474Z,12.10
2022-10-12T08:01:24.688Z,12.20
2022-10-12T08:03:51.927Z,18.88
2022-10-12T08:06:21.437Z,12.88
2022-10-12T08:08:48.771Z,15.98
2022-10-12T08:11:16.226Z,15.63
2022-10-12T08:13:43.169Z,18.00
2022-10-12T08:16:14.990Z,17.15
2022-10-12T08:18:41.507Z,13.98
2022-10-12T08:21:09.388Z,12.98
2022-10-12T08:23:37.054Z,19.35
2022-10-12T08:26:04.525Z,15.27
2022-10-12T08:28:31.159Z,12.15
2022-10-12T08:30:58.129Z,14.48
2022-10-12T08:33:24.675Z,14.25
2022-10-12T08:35:51.317Z,14.05
2022-10-12T08:38:17.878Z,16.25
2022-10-12T08:41:10.958Z,10.80
2022-10-12T08:44:11.713Z,16.52
2022-10-12T08:46:38.436Z,17.50
2022-10-12T08:49:15.325Z,14.18
2022-10-12T08:51:52.697Z,14.68
2022-10-12T08:54:22.482Z,9.63
2022-10-12T08:56:51.472Z,20.08
2022-10-12T08:59:19.080Z,21.23
2022-10-12T09:01:54.514Z,17.83
2022-10-12T09:04:36.133Z,20.45
2022-10-12T09:07:15.343Z,17.05
2022-10-12T09:09:56.857Z,16.55
2022-10-12T09:12:45.110Z,14.90
2022-10-12T09:15:19.950Z,16.15
2022-10-12T09:17:53.281Z,12.27
2022-10-12T09:20:19.906Z,12.57
2022-10-12T09:22:56.518Z,12.98
2022-10-12T09:25:28.244Z,19.63
2022-10-12T09:28:06.741Z,11.15
2022-10-12T09:30:37.762Z,14.63
2022-10-12T09:33:16.119Z,15.73
2022-10-12T09:35:45.066Z,12.77
2022-10-12T09:38:12.168Z,13.77
2022-10-12T09:40:39.654Z,11.70
2022-10-12T09:43:07.464Z,15.20
2022-10-12T09:45:35.163Z,14.07
2022-10-12T09:48:15.796Z,12.77
2022-10-12T09:50:54.318Z,17.95
2022-10-12T09:53:33.705Z,14.52
2022-10-12T09:56:05.663Z,16.38
2022-10-12T09:58:41.574Z,13.93
2022-10-12T10:01:16.563Z,13.90
2022-10-12T10:03:45.323Z,13.98
2022-10-12T10:06:11.974Z,20.67
2022-10-12T10:08:44.859Z,16.75
2022-10-12T10:11:16.853Z,15.55
2022-10-12T10:16:14.832Z,15.95
2022-10-12T10:18:51.015Z,9.38
2022-10-12T10:21:39.559Z,12.70
2022-10-12T10:24:20.833Z,16.00
2022-10-12T10:27:03.547Z,13.70
2022-10-12T10:29:35.381Z,10.38
2022-10-12T10:32:24.226Z,18.05
2022-10-12T10:35:21.920Z,12.38
2022-10-12T10:37:51.472Z,13.55
2022-10-12T10:40:22.612Z,15.15
2022-10-12T10:42:55.546Z,11.30
2022-10-12T10:45:35.466Z,14.15
2022-10-12T10:48:16.601Z,12.93
2022-10-12T10:50:50.823Z,12.93
2022-10-12T10:53:23.978Z,13.30
2022-10-12T10:56:14.222Z,13.07
2022-10-12T10:58:47.658Z,9.75
2022-10-12T11:01:35.305Z,12.10
2022-10-12T11:04:12.127Z,10.32
2022-10-12T11:06:44.686Z,18.15
2022-10-12T11:09:15.841Z,13.65
2022-10-12T11:11:44.278Z,13.40
2022-10-12T11:14:20.667Z,10.38
2022-10-12T11:17:01.040Z,8.13
2022-10-12T11:19:39.427Z,12.80
2022-10-12T11:22:15.342Z,15.70
2022-10-12T11:24:54.479Z,9.45
2022-10-12T11:27:39.493Z,11.40
2022-10-12T11:30:26.413Z,10.40
2022-10-12T11:33:22.267Z,12.73
2022-10-12T11:35:49.708Z,10.05
2022-10-12T11:38:52.455Z,12.27
2022-10-12T11:41:36.100Z,12.20
2022-10-12T11:44:20.791Z,11.25
2022-10-12T11:46:54.321Z,13.25
2022-10-12T11:49:29.190Z,10.10
2022-10-12T11:51:59.645Z,8.25
2022-10-12T11:54:31.780Z,18.70
2022-10-12T11:57:05.936Z,9.60
2022-10-12T11:59:59.123Z,10.85
2022-10-12T12:02:42.889Z,7.60
2022-10-12T12:05:16.729Z,15.40
2022-10-12T12:07:51.024Z,12.38
2022-10-12T12:10:26.590Z,15.57
2022-10-12T12:13:14.952Z,7.50
2022-10-12T12:15:47.436Z,10.15
2022-10-12T12:18:44.380Z,14.48
2022-10-12T12:21:11.127Z,10.95
2022-10-12T12:23:43.706Z,11.70
2022-10-12T12:26:15.593Z,9.85
2022-10-12T12:28:51.831Z,6.05
2022-10-12T12:31:27.700Z,9.57
2022-10-12T12:34:17.268Z,11.52
2022-10-12T12:36:46.402Z,8.95
2022-10-12T12:39:27.470Z,16.23
2022-10-12T12:42:02.292Z,8.23
2022-10-12T12:44:36.682Z,10.57
2022-10-12T12:47:08.604Z,11.20
2022-10-12T12:49:51.692Z,7.65
2022-10-12T12:52:24.232Z,12.32
2022-10-12T12:55:18.550Z,5.38
2022-10-12T12:58:03.680Z,7.82
2022-10-12T13:00:38.260Z,10.75
2022-10-12T13:03:31.064Z,14.05
2022-10-12T13:06:25.122Z,11.55
2022-10-12T13:09:21.353Z,8.52
2022-10-12T13:12:26.002Z,9.20
2022-10-12T13:15:18.747Z,9.18
2022-10-12T13:18:23.148Z,10.80
2022-10-12T13:20:55.943Z,8.93
2022-10-12T13:23:26.166Z,13.63
2022-10-12T13:25:57.449Z,8.52
2022-10-12T13:28:31.443Z,14.50
2022-10-12T13:31:04.281Z,9.75
2022-10-12T13:33:39.054Z,10.57
2022-10-12T13:36:11.108Z,12.95
2022-10-12T13:38:40.448Z,9.65
2022-10-12T13:41:16.648Z,8.70
2022-10-12T13:43:50.244Z,10.70
2022-10-12T13:46:35.527Z,9.93
2022-10-12T13:49:03.713Z,12.52
2022-10-12T13:51:31.414Z,10.10
2022-10-12T13:53:58.202Z,9.27
2022-10-12T13:56:28.166Z,6.88
2022-10-12T13:59:00.333Z,12.77
2022-10-12T14:01:27.058Z,10.13
2022-10-12T14:04:02.993Z,7.40
2022-10-12T14:06:35.308Z,7.13
2022-10-12T14:09:18.276Z,7.40
2022-10-12T14:11:46.590Z,9.73
2022-10-12T14:14:35.141Z,14.23
2022-10-12T14:17:02.279Z,9.30
2022-10-12T14:19:45.340Z,11.10
2022-10-12T14:22:18.633Z,7.93
2022-10-12T14:24:45.168Z,9.18
2022-10-12T14:27:24.505Z,11.35
2022-10-12T14:29:56.705Z,8.90
2022-10-12T14:32:23.130Z,6.30
2022-10-12T14:35:03.355Z,7.63
2022-10-12T14:37:31.029Z,11.18
2022-10-12T14:40:00.908Z,10.13
2022-10-12T14:42:34.107Z,9.50
2022-10-12T14:45:02.098Z,10.10
2022-10-12T14:47:37.486Z,10.48
2022-10-12T14:50:08.260Z,15.63
2022-10-12T14:52:45.026Z,10.23
2022-10-12T14:55:32.312Z,11.60
2022-10-12T14:57:59.768Z,10.77
2022-10-12T15:00:32.054Z,13.68
2022-10-12T15:02:59.249Z,11.18
2022-10-12T15:05:29.027Z,8.73
2022-10-12T15:07:55.482Z,9.02
2022-10-12T15:10:23.764Z,10.55
2022-10-12T15:12:51.440Z,9.98
2022-10-12T15:15:39.467Z,11.45
2022-10-12T15:18:06.607Z,13.85
2022-10-12T15:20:36.402Z,12.15
2022-10-12T15:23:03.221Z,9.68
2022-10-12T15:25:35.569Z,8.77
2022-10-12T15:28:03.027Z,9.68
2022-10-12T15:30:29.926Z,14.18
2022-10-12T15:32:56.433Z,8.48
2022-10-12T15:35:25.798Z,18.13
2022-10-12T15:37:52.625Z,7.72
2022-10-12T15:40:20.584Z,14.40
2022-10-12T15:42:47.469Z,13.10
2022-10-12T15:45:19.399Z,13.88
2022-10-12T15:50:18.018Z,10.75
2022-10-12T15:52:45.055Z,10.80
2022-10-12T15:55:16.211Z,13.25
2022-10-12T15:57:43.027Z,11.00
2022-10-12T16:00:11.096Z,12.27
2022-10-12T16:02:37.801Z,19.27
2022-10-12T16:05:06.727Z,14.90
2022-10-12T16:07:33.183Z,16.25
2022-10-12T16:09:59.671Z,11.50
2022-10-12T16:12:26.135Z,10.05
2022-10-12T16:14:52.622Z,8.63
2022-10-12T16:17:19.060Z,12.00
2022-10-12T16:19:45.747Z,11.35
2022-10-12T16:22:12.219Z,9.48
2022-10-12T16:24:38.720Z,15.13
2022-10-12T16:27:05.242Z,11.80
2022-10-12T16:29:31.741Z,10.20
2022-10-12T16:31:58.208Z,13.30
2022-10-12T16:34:24.681Z,11.38
2022-10-12T16:36:53.151Z,15.68
2022-10-12T16:39:19.694Z,12.50
2022-10-12T16:41:46.179Z,14.32
2022-10-12T16:44:12.673Z,16.98
2022-10-12T16:46:39.420Z,13.38
2022-10-12T16:49:05.908Z,20.73
2022-10-12T16:51:32.455Z,17.83
2022-10-12T16:53:59.281Z,20.02
2022-10-12T16:56:25.810Z,24.10
2022-10-12T16:58:52.620Z,20.83
2022-10-12T17:01:19.178Z,30.75
2022-10-12T17:03:45.671Z,27.77
2022-10-12T17:06:12.209Z,19.63
2022-10-12T17:08:41.739Z,22.48
2022-10-12T17:11:10.864Z,23.20
2022-10-12T17:13:38.457Z,18.00
2022-10-12T17:16:25.684Z,21.75
2022-10-12T17:18:56.804Z,18.80
2022-10-12T17:21:25.625Z,22.20
2022-10-12T17:23:55.196Z,27.27
2022-10-12T17:26:21.750Z,42.47
2022-10-12T17:28:48.287Z,47.70
2022-10-12T17:31:14.942Z,34.33
2022-10-12T17:33:41.422Z,36.22
2022-10-12T17:36:10.603Z,26.48
2022-10-12T17:38:37.370Z,22.60
2022-10-12T17:41:05.140Z,18.15
2022-10-12T17:43:32.071Z,20.90
2022-10-12T17:45:59.072Z,18.63
2022-10-12T17:48:25.597Z,16.83
2022-10-12T17:50:52.102Z,18.05
2022-10-12T17:53:18.638Z,18.90
2022-10-12T17:55:48.621Z,22.95
2022-10-12T17:58:15.741Z,22.17
2022-10-12T18:00:42.365Z,24.33
2022-10-12T18:03:08.920Z,23.40
2022-10-12T18:05:35.439Z,24.95
2022-10-12T18:08:01.994Z,19.13
2022-10-12T18:10:28.753Z,17.55
2022-10-12T18:12:55.451Z,17.75
2022-10-12T18:15:23.102Z,19.35
2022-10-12T18:17:50.588Z,18.30
2022-10-12T18:20:18.695Z,25.70
2022-10-12T18:22:45.244Z,47.05
2022-10-12T18:25:11.781Z,55.53
2022-10-12T18:27:38.321Z,52.13
2022-10-12T18:30:05.363Z,60.70
2022-10-12T18:32:31.868Z,56.17
2022-10-12T18:34:58.462Z,47.13
2022-10-12T18:37:25.032Z,32.03
2022-10-12T18:39:51.568Z,32.55
2022-10-12T18:42:18.326Z,38.10
2022-10-12T18:44:45.134Z,39.25
2022-10-12T18:47:11.618Z,36.60
2022-10-12T18:49:38.288Z,36.78
2022-10-12T18:52:05.101Z,34.47
2022-10-12T18:54:31.692Z,27.23
2022-10-12T18:56:58.182Z,23.13
2022-10-12T18:59:24.692Z,21.08
2022-10-12T19:01:51.371Z,23.33
2022-10-12T19:04:18.009Z,20.17
2022-10-12T19:06:45.089Z,19.17
2022-10-12T19:09:13.693Z,21.05
2022-10-12T19:11:40.716Z,18.63
2022-10-12T19:14:15.812Z,17.35
2022-10-12T19:16:43.887Z,19.67
2022-10-12T19:19:20.766Z,20.88
2022-10-12T19:21:49.424Z,11.90
2022-10-12T19:24:16.268Z,16.88
2022-10-12T19:26:43.755Z,14.10
2022-10-12T19:29:12.919Z,16.60
2022-10-12T19:31:44.399Z,14.98
2022-10-12T19:34:14.255Z,18.35
2022-10-12T19:36:41.836Z,21.98
2022-10-12T19:39:12.307Z,13.25
2022-10-12T19:41:42.410Z,19.75
2022-10-12T19:44:11.265Z,16.00
2022-10-12T19:46:38.990Z,26.15
2022-10-12T19:49:05.704Z,21.98
2022-10-12T19:51:32.861Z,21.38
2022-10-12T19:54:01.825Z,22.48
2022-10-12T19:56:28.689Z,24.50
2022-10-12T19:58:59.186Z,29.40
2022-10-12T20:01:28.501Z,33.47
2022-10-12T20:03:55.913Z,28.45
2022-10-12T20:06:25.250Z,29.42
2022-10-12T20:08:53.753Z,30.50
2022-10-12T20:11:24.509Z,37.85
2022-10-12T20:13:52.159Z,36.30
2022-10-12T20:16:20.099Z,29.08
2022-10-12T20:18:46.717Z,20.77
2022-10-12T20:21:16.281Z,22.85
2022-10-12T20:23:43.631Z,21.40
2022-10-12T20:26:16.971Z,20.88
2022-10-12T20:28:49.387Z,20.00
2022-10-12T20:31:17.486Z,23.27
2022-10-12T20:33:44.264Z,22.55
2022-10-12T20:36:18.489Z,19.75
2022-10-12T20:38:44.962Z,21.40
2022-10-12T20:41:13.285Z,22.45
2022-10-12T20:43:40.782Z,20.42
2022-10-12T20:46:10.882Z,21.88
2022-10-12T20:48:39.660Z,18.10
2022-10-12T20:51:10.516Z,22.25
2022-10-12T20:53:37.902Z,21.27
2022-10-12T20:56:06.299Z,19.75
2022-10-12T20:58:32.813Z,17.20
2022-10-12T21:01:07.588Z,24.38
2022-10-12T21:03:34.905Z,19.45
2022-10-12T21:06:03.663Z,18.40
2022-10-12T21:08:30.374Z,17.13
2022-10-12T21:10:57.154Z,19.20
2022-10-12T21:13:23.687Z,19.00
2022-10-12T21:15:54.234Z,20.08
2022-10-12T21:18:21.693Z,20.42
2022-10-12T21:20:59.203Z,15.45
2022-10-12T21:23:26.156Z,27.05
2022-10-12T21:25:53.223Z,19.67
2022-10-12T21:28:20.703Z,15.80
2022-10-12T21:30:47.633Z,16.20
2022-10-12T21:33:16.646Z,21.27
2022-10-12T21:35:43.594Z,17.73
2022-10-12T21:38:10.600Z,20.00
2022-10-12T21:40:40.541Z,20.15
2022-10-12T21:43:06.993Z,20.38
2022-10-12T21:45:34.348Z,23.33
2022-10-12T21:48:00.957Z,14.30
2022-10-12T21:50:28.391Z,15.73
2022-10-12T21:53:00.067Z,17.15
2022-10-12T21:57:53.208Z,50.92
2022-10-12T22:00:19.709Z,51.35
2022-10-12T22:02:46.143Z,40.10
2022-10-12T22:05:12.659Z,37.15
2022-10-12T22:07:41.800Z,20.50
2022-10-12T22:10:10.742Z,21.48
2022-10-12T22:12:38.221Z,20.35
2022-10-12T22:15:05.463Z,16.40
2022-10-12T22:17:31.905Z,18.73
2022-10-12T22:19:58.378Z,15.70
2022-10-12T22:22:24.873Z,20.10
2022-10-12T22:24:51.375Z,19.23
2022-10-12T22:27:20.391Z,19.83
2022-10-12T22:29:46.891Z,19.58
2022-10-12T22:32:13.358Z,26.08
2022-10-12T22:34:39.845Z,18.38
2022-10-12T22:37:06.321Z,15.98
2022-10-12T22:39:32.797Z,19.45
2022-10-12T22:41:59.237Z,17.50
2022-10-12T22:44:25.933Z,16.20
2022-10-12T22:46:52.371Z,21.52
2022-10-12T22:49:18.882Z,17.73
2022-10-12T22:51:45.493Z,19.15
2022-10-12T22:54:13.343Z,17.17
2022-10-12T22:56:40.645Z,25.20
2022-10-12T22:59:07.245Z,20.77
2022-10-12T23:01:35.071Z,18.95
2022-10-12T23:04:01.592Z,24.35
2022-10-12T23:06:28.102Z,20.80
2022-10-12T23:08:54.649Z,21.00
2022-10-12T23:11:24.103Z,19.90
2022-10-12T23:13:51.033Z,19.42
2022-10-12T23:16:29.361Z,17.17
2022-10-12T23:19:00.925Z,27.60
2022-10-12T23:21:29.444Z,24.73
2022-10-12T23:23:56.428Z,14.50
2022-10-12T23:26:25.133Z,21.25
2022-10-12T23:28:52.874Z,19.02
2022-10-12T23:31:22.004Z,20.35
2022-10-12T23:33:48.855Z,20.85
2022-10-12T23:36:17.491Z,20.42
2022-10-12T23:38:44.947Z,18.90
2022-10-12T23:41:14.785Z,21.50
2022-10-12T23:43:41.607Z,23.02
2022-10-12T23:46:10.187Z,17.13
2022-10-12T23:48:36.709Z,22.05
2022-10-12T23:51:06.873Z,23.70
2022-10-12T23:53:33.713Z,17.77
2022-10-12T23:56:00.232Z,18.48
2022-10-12T23:58:26.666Z,21.80
